createdAt,value
2017-12-01T00:01:47.262Z,18.36
2017-12-01T00:04:13.632Z,18.32
2017-12-01T00:06:39.898Z,18.35
2017-12-01T00:09:06.059Z,18.33
2017-12-01T00:11:32.276Z,18.39
2017-12-01T00:13:58.464Z,18.36
2017-12-01T00:16:24.656Z,18.39
2017-12-01T00:18:50.961Z,18.29
2017-12-01T00:21:17.167Z,18.21
2017-12-01T00:23:43.389Z,18.19
2017-12-01T00:26:09.878Z,18.14
2017-12-01T00:28:36.434Z,18.10
2017-12-01T00:31:02.718Z,18.04
2017-12-01T00:33:28.952Z,18.08
2017-12-01T00:35:55.162Z,18.01
2017-12-01T00:38:21.340Z,18.06
2017-12-01T00:40:47.569Z,18.11
2017-12-01T00:43:13.764Z,18.14
2017-12-01T00:45:40.294Z,18.17
2017-12-01T00:48:06.731Z,18.07
2017-12-01T00:50:33.250Z,18.07
2017-12-01T00:52:59.786Z,18.20
2017-12-01T00:55:25.992Z,18.14
2017-12-01T00:57:52.569Z,18.24
2017-12-01T01:00:19.287Z,18.29
2017-12-01T01:02:45.846Z,18.35
2017-12-01T01:05:12.468Z,18.34
2017-12-01T01:07:39.244Z,18.21
2017-12-01T01:10:05.441Z,18.29
2017-12-01T01:12:31.869Z,18.45
2017-12-01T01:14:58.236Z,18.51
2017-12-01T01:17:24.754Z,18.55
2017-12-01T01:19:50.959Z,18.60
2017-12-01T01:22:17.161Z,18.62
2017-12-01T01:24:43.424Z,18.65
2017-12-01T01:27:09.652Z,18.64
2017-12-01T01:29:35.851Z,18.60
2017-12-01T01:32:02.281Z,18.61
2017-12-01T01:34:28.519Z,18.69
2017-12-01T01:36:54.988Z,18.65
2017-12-01T01:39:21.203Z,18.64
2017-12-01T01:41:47.442Z,18.65
2017-12-01T01:44:13.866Z,18.52
2017-12-01T01:46:40.089Z,18.67
2017-12-01T01:49:06.281Z,18.66
2017-12-01T01:51:32.472Z,18.42
2017-12-01T01:53:58.665Z,17.71
2017-12-01T01:56:24.845Z,16.73
2017-12-01T01:58:51.044Z,16.10
2017-12-01T02:01:17.261Z,15.58
2017-12-01T02:03:43.717Z,14.85
2017-12-01T02:06:09.921Z,14.38
2017-12-01T02:08:36.121Z,14.13
2017-12-01T02:11:02.391Z,13.82
2017-12-01T02:13:28.606Z,13.19
2017-12-01T02:15:54.798Z,13.08
2017-12-01T02:18:21.018Z,12.79
2017-12-01T02:20:47.396Z,12.69
2017-12-01T02:23:13.586Z,12.53
2017-12-01T02:25:40.047Z,12.35
2017-12-01T02:28:06.233Z,12.07
2017-12-01T02:30:32.523Z,11.66
2017-12-01T02:32:58.759Z,11.27
2017-12-01T02:35:24.947Z,10.93
2017-12-01T02:37:51.130Z,10.57
2017-12-01T02:40:17.363Z,10.34
2017-12-01T02:42:43.543Z,10.07
2017-12-01T02:45:09.890Z,9.94
2017-12-01T02:47:36.105Z,9.88
2017-12-01T02:50:02.346Z,9.89
2017-12-01T02:52:28.543Z,9.67
2017-12-01T02:54:54.802Z,9.45
2017-12-01T02:57:21.013Z,9.32
2017-12-01T02:59:47.271Z,9.13
2017-12-01T03:02:13.695Z,9.20
2017-12-01T03:04:39.936Z,9.14
2017-12-01T03:07:06.142Z,9.08
2017-12-01T03:09:32.383Z,9.09
2017-12-01T03:11:58.621Z,9.01
2017-12-01T03:14:24.841Z,8.94
2017-12-01T03:16:51.283Z,8.86
2017-12-01T03:19:17.442Z,8.73
2017-12-01T03:21:43.725Z,8.67
2017-12-01T03:24:09.939Z,8.56
2017-12-01T03:26:36.125Z,8.44
2017-12-01T03:29:02.326Z,8.39
2017-12-01T03:31:28.562Z,8.39
2017-12-01T03:33:54.870Z,8.44
2017-12-01T03:36:21.045Z,8.47
2017-12-01T03:38:47.260Z,8.44
2017-12-01T03:41:13.429Z,8.43
2017-12-01T03:43:39.784Z,8.40
2017-12-01T03:46:06.005Z,8.26
2017-12-01T03:48:32.248Z,8.20
2017-12-01T03:50:58.484Z,8.10
2017-12-01T03:53:24.704Z,8.09
2017-12-01T03:55:50.897Z,8.11
2017-12-01T03:58:17.237Z,8.06
2017-12-01T04:00:43.452Z,8.09
2017-12-01T04:03:09.640Z,8.06
2017-12-01T04:05:36.236Z,7.95
2017-12-01T04:08:02.470Z,7.94
2017-12-01T04:10:28.690Z,7.88
2017-12-01T04:12:54.909Z,7.85
2017-12-01T04:15:21.154Z,7.93
2017-12-01T04:17:47.404Z,7.93
2017-12-01T04:20:13.616Z,7.95
2017-12-01T04:22:39.846Z,7.98
2017-12-01T04:25:06.037Z,7.88
2017-12-01T04:27:32.310Z,7.91
2017-12-01T04:29:58.550Z,8.03
2017-12-01T04:32:24.754Z,8.05
2017-12-01T04:34:50.986Z,8.00
2017-12-01T04:37:17.651Z,7.94
2017-12-01T04:39:43.865Z,7.95
2017-12-01T04:42:10.057Z,7.93
2017-12-01T04:44:36.332Z,7.88
2017-12-01T04:47:02.534Z,7.81
2017-12-01T04:49:28.778Z,7.85
2017-12-01T04:51:54.995Z,7.81
2017-12-01T04:54:21.218Z,7.84
2017-12-01T04:56:47.475Z,7.83
2017-12-01T04:59:13.888Z,7.75
2017-12-01T05:01:40.157Z,7.60
2017-12-01T05:04:06.374Z,7.67
2017-12-01T05:06:32.599Z,7.58
2017-12-01T05:08:58.797Z,7.72
2017-12-01T05:11:25.050Z,7.76
2017-12-01T05:13:51.261Z,7.80
2017-12-01T05:16:17.505Z,7.85
2017-12-01T05:18:43.685Z,7.77
2017-12-01T05:21:09.921Z,7.74
2017-12-01T05:23:36.176Z,7.78
2017-12-01T05:26:02.396Z,7.82
2017-12-01T05:28:28.833Z,7.84
2017-12-01T05:30:55.076Z,7.88
2017-12-01T05:33:21.368Z,7.75
2017-12-01T05:35:47.738Z,7.76
2017-12-01T05:38:13.932Z,7.73
2017-12-01T05:40:40.196Z,7.83
2017-12-01T05:43:06.812Z,7.84
2017-12-01T05:45:33.250Z,7.86
2017-12-01T05:47:59.508Z,7.94
2017-12-01T05:50:25.726Z,8.00
2017-12-01T05:52:51.908Z,8.01
2017-12-01T05:55:18.181Z,8.05
2017-12-01T05:57:44.402Z,7.99
2017-12-01T06:00:10.598Z,7.99
2017-12-01T06:02:37.044Z,8.08
2017-12-01T06:05:03.265Z,8.15
2017-12-01T06:07:29.454Z,8.19
2017-12-01T06:09:55.759Z,8.19
2017-12-01T06:12:22.199Z,8.20
2017-12-01T06:14:48.397Z,8.30
2017-12-01T06:17:14.818Z,8.33
2017-12-01T06:19:41.083Z,8.43
2017-12-01T06:22:07.294Z,8.49
2017-12-01T06:24:33.468Z,8.48
2017-12-01T06:26:59.778Z,8.51
2017-12-01T06:29:26.211Z,8.65
2017-12-01T06:31:52.400Z,8.71
2017-12-01T06:34:18.620Z,8.83
2017-12-01T06:36:44.890Z,8.89
2017-12-01T06:39:11.096Z,8.88
2017-12-01T06:41:37.308Z,8.92
2017-12-01T06:44:03.582Z,9.08
2017-12-01T06:46:29.784Z,8.94
2017-12-01T06:48:56.087Z,9.05
2017-12-01T06:51:22.304Z,9.06
2017-12-01T06:53:48.690Z,9.30
2017-12-01T06:56:14.873Z,9.35
2017-12-01T06:58:41.068Z,9.43
2017-12-01T07:01:07.248Z,9.63
2017-12-01T07:03:33.810Z,9.36
2017-12-01T07:06:00.059Z,9.33
2017-12-01T07:08:26.256Z,9.31
2017-12-01T07:10:52.439Z,9.25
2017-12-01T07:13:18.721Z,9.44
2017-12-01T07:15:44.939Z,9.59
2017-12-01T07:18:11.194Z,9.65
2017-12-01T07:20:37.406Z,9.45
2017-12-01T07:23:03.641Z,9.33
2017-12-01T07:25:29.819Z,9.28
2017-12-01T07:27:56.111Z,9.28
2017-12-01T07:30:22.329Z,9.38
2017-12-01T07:32:48.570Z,9.63
2017-12-01T07:35:14.980Z,9.50
2017-12-01T07:37:41.203Z,9.56
2017-12-01T07:40:07.398Z,9.66
2017-12-01T07:42:33.593Z,9.76
2017-12-01T07:44:59.825Z,9.80
2017-12-01T07:47:26.337Z,9.77
2017-12-01T07:49:52.558Z,9.63
2017-12-01T07:52:19.000Z,9.54
2017-12-01T07:54:45.239Z,9.50
2017-12-01T07:57:11.440Z,9.50
2017-12-01T07:59:37.661Z,9.51
2017-12-01T08:02:03.862Z,9.60
2017-12-01T08:04:30.140Z,9.59
2017-12-01T08:06:56.340Z,9.47
2017-12-01T08:09:22.596Z,9.45
2017-12-01T08:11:48.842Z,9.18
2017-12-01T08:14:15.275Z,9.34
2017-12-01T08:16:41.504Z,9.31
2017-12-01T08:19:07.679Z,9.38
2017-12-01T08:21:33.960Z,9.41
2017-12-01T08:24:00.174Z,9.50
2017-12-01T08:26:26.430Z,9.61
2017-12-01T08:28:52.836Z,9.65
2017-12-01T08:31:19.037Z,9.77
2017-12-01T08:33:45.209Z,9.86
2017-12-01T08:36:11.702Z,10.02
2017-12-01T08:38:37.971Z,9.99
2017-12-01T08:41:04.192Z,10.08
2017-12-01T08:43:30.624Z,10.02
2017-12-01T08:45:57.066Z,9.93
2017-12-01T08:48:23.281Z,9.86
2017-12-01T08:50:49.510Z,9.91
2017-12-01T08:53:15.725Z,9.92
2017-12-01T08:55:41.983Z,9.96
2017-12-01T08:58:08.352Z,10.02
2017-12-01T09:00:34.624Z,9.98
2017-12-01T09:03:00.811Z,9.74
2017-12-01T09:05:27.100Z,9.80
2017-12-01T09:07:53.292Z,9.72
2017-12-01T09:10:19.763Z,9.63
2017-12-01T09:12:46.380Z,9.65
2017-12-01T09:15:12.582Z,9.64
2017-12-01T09:17:38.857Z,9.66
2017-12-01T09:20:05.229Z,9.74
2017-12-01T09:22:31.705Z,9.82
2017-12-01T09:24:57.908Z,9.78
2017-12-01T09:27:24.195Z,9.79
2017-12-01T09:29:50.390Z,9.77
2017-12-01T09:32:16.579Z,9.75
2017-12-01T09:34:42.805Z,9.68
2017-12-01T09:37:09.931Z,9.75
2017-12-01T09:39:36.556Z,9.84
2017-12-01T09:42:03.177Z,9.89
2017-12-01T09:44:29.408Z,9.86
2017-12-01T09:46:55.656Z,9.84
2017-12-01T09:49:22.280Z,9.84
2017-12-01T09:51:48.937Z,9.88
2017-12-01T09:54:15.192Z,9.81
2017-12-01T09:56:41.446Z,9.86
2017-12-01T09:59:08.138Z,9.91
2017-12-01T10:01:34.328Z,9.90
2017-12-01T10:04:00.999Z,9.91
2017-12-01T10:06:27.524Z,9.94
2017-12-01T10:08:53.913Z,9.92
2017-12-01T10:11:20.268Z,9.94
2017-12-01T10:13:46.467Z,10.02
2017-12-01T10:16:12.661Z,10.04
2017-12-01T10:18:38.979Z,10.06
2017-12-01T10:21:05.177Z,10.16
2017-12-01T10:23:31.418Z,10.08
2017-12-01T10:25:57.694Z,10.05
2017-12-01T10:28:23.881Z,10.10
2017-12-01T10:30:50.071Z,10.06
2017-12-01T10:33:16.298Z,10.06
2017-12-01T10:35:42.473Z,10.08
2017-12-01T10:38:08.862Z,10.09
2017-12-01T10:40:35.238Z,10.17
2017-12-01T10:43:01.673Z,10.18
2017-12-01T10:45:27.848Z,10.02
2017-12-01T10:47:54.105Z,10.14
2017-12-01T10:50:20.343Z,10.26
2017-12-01T10:52:46.533Z,10.13
2017-12-01T10:55:12.818Z,10.08
2017-12-01T10:57:39.043Z,10.20
2017-12-01T11:00:05.229Z,10.29
2017-12-01T11:02:31.445Z,10.20
2017-12-01T11:04:57.627Z,10.23
2017-12-01T11:07:23.960Z,10.19
2017-12-01T11:09:50.190Z,10.12
2017-12-01T11:12:16.409Z,10.21
2017-12-01T11:14:42.645Z,10.31
2017-12-01T11:17:08.877Z,10.37
2017-12-01T11:19:35.101Z,10.29
2017-12-01T11:22:01.330Z,10.34
2017-12-01T11:24:27.782Z,10.29
2017-12-01T11:26:54.129Z,10.29
2017-12-01T11:29:20.427Z,10.32
2017-12-01T11:31:46.795Z,10.33
2017-12-01T11:34:13.089Z,10.25
2017-12-01T11:36:39.307Z,10.18
2017-12-01T11:39:05.688Z,10.16
2017-12-01T11:41:31.980Z,10.27
2017-12-01T11:43:58.155Z,10.24
2017-12-01T11:46:24.399Z,10.13
2017-12-01T11:48:50.660Z,9.99
2017-12-01T12:05:10.078Z,10.30
2017-12-01T12:07:36.652Z,10.36
2017-12-01T12:10:02.839Z,10.36
2017-12-01T12:12:29.132Z,10.32
2017-12-01T12:14:55.547Z,10.30
2017-12-01T12:17:21.791Z,10.25
2017-12-01T12:19:48.404Z,10.25
2017-12-01T12:22:14.648Z,10.25
2017-12-01T12:24:40.829Z,10.20
2017-12-01T12:27:07.049Z,10.18
2017-12-01T12:29:33.347Z,9.89
2017-12-01T12:31:59.530Z,9.74
2017-12-01T12:34:25.740Z,9.82
2017-12-01T12:36:52.036Z,9.88
2017-12-01T12:39:18.250Z,9.91
2017-12-01T12:41:44.494Z,9.79
2017-12-01T12:44:10.663Z,9.92
2017-12-01T12:46:36.846Z,9.94
2017-12-01T12:49:03.073Z,9.91
2017-12-01T12:51:29.597Z,9.89
2017-12-01T12:53:55.786Z,9.89
2017-12-01T12:56:22.070Z,9.89
2017-12-01T12:58:48.239Z,9.91
2017-12-01T13:01:14.519Z,9.94
2017-12-01T13:03:40.950Z,9.93
2017-12-01T13:06:07.145Z,9.95
2017-12-01T13:08:33.411Z,9.98
2017-12-01T13:10:59.842Z,10.01
2017-12-01T13:13:26.055Z,9.99
2017-12-01T13:15:52.294Z,9.96
2017-12-01T13:18:18.523Z,9.98
2017-12-01T13:20:44.703Z,9.97
2017-12-01T13:23:10.881Z,9.86
2017-12-01T13:25:37.201Z,9.88
2017-12-01T13:28:03.380Z,9.96
2017-12-01T13:30:29.560Z,9.95
2017-12-01T13:32:55.889Z,9.98
2017-12-01T13:35:22.139Z,9.92
2017-12-01T13:37:48.345Z,9.86
2017-12-01T13:40:14.557Z,9.82
2017-12-01T13:42:40.804Z,9.81
2017-12-01T13:45:07.048Z,9.72
2017-12-01T13:47:33.678Z,9.71
2017-12-01T13:49:59.903Z,9.66
2017-12-01T13:52:26.127Z,9.66
2017-12-01T13:54:52.351Z,9.63
2017-12-01T13:57:18.532Z,9.67
2017-12-01T13:59:44.683Z,9.64
2017-12-01T14:02:11.065Z,9.63
2017-12-01T14:04:37.254Z,9.67
2017-12-01T14:07:03.521Z,9.69
2017-12-01T14:09:30.134Z,9.65
2017-12-01T14:11:56.311Z,9.60
2017-12-01T14:14:22.606Z,9.56
2017-12-01T14:16:49.036Z,9.60
2017-12-01T14:19:15.274Z,9.57
2017-12-01T14:21:41.508Z,9.54
2017-12-01T14:24:07.942Z,9.50
2017-12-01T14:26:34.371Z,9.40
2017-12-01T14:29:00.601Z,9.35
2017-12-01T14:31:26.796Z,9.35
2017-12-01T14:33:53.047Z,9.35
2017-12-01T14:36:19.214Z,9.34
2017-12-01T14:38:45.495Z,9.33
2017-12-01T14:41:11.681Z,9.31
2017-12-01T14:43:37.973Z,9.32
2017-12-01T14:46:04.386Z,9.32
2017-12-01T14:48:30.624Z,9.31
2017-12-01T14:50:56.793Z,9.26
2017-12-01T14:53:23.008Z,9.26
2017-12-01T14:55:49.186Z,9.31
2017-12-01T14:58:15.364Z,9.34
2017-12-01T15:00:41.717Z,9.37
2017-12-01T15:03:07.988Z,9.41
2017-12-01T15:05:34.160Z,9.44
2017-12-01T15:08:00.372Z,9.44
2017-12-01T15:10:26.544Z,9.38
2017-12-01T15:12:52.717Z,9.33
2017-12-01T15:15:19.132Z,9.34
2017-12-01T15:17:45.298Z,9.34
2017-12-01T15:20:11.607Z,9.43
2017-12-01T15:22:37.822Z,9.46
2017-12-01T15:25:04.066Z,9.43
2017-12-01T15:27:30.258Z,9.37
2017-12-01T15:29:56.485Z,9.31
2017-12-01T15:32:22.734Z,9.26
2017-12-01T15:34:48.969Z,9.29
2017-12-01T15:37:15.186Z,9.30
2017-12-01T15:39:41.436Z,9.34
2017-12-01T15:42:07.622Z,9.33
2017-12-01T15:44:33.824Z,9.35
2017-12-01T15:47:00.132Z,9.35
2017-12-01T15:49:26.534Z,9.27
2017-12-01T15:51:52.989Z,9.27
2017-12-01T15:54:19.175Z,9.34
2017-12-01T15:56:45.602Z,9.37
2017-12-01T15:59:11.866Z,9.36
2017-12-01T16:01:38.054Z,9.35
2017-12-01T16:04:04.242Z,9.36
2017-12-01T16:06:30.464Z,9.33
2017-12-01T16:08:56.637Z,9.31
2017-12-01T16:11:22.826Z,9.27
2017-12-01T16:13:49.253Z,9.22
2017-12-01T16:16:15.476Z,9.22
2017-12-01T16:18:41.703Z,9.20
2017-12-01T16:21:08.144Z,9.28
2017-12-01T16:23:34.323Z,9.23
2017-12-01T16:26:00.505Z,9.22
2017-12-01T16:28:26.712Z,9.28
2017-12-01T16:30:52.918Z,9.32
2017-12-01T16:33:19.110Z,9.29
2017-12-01T16:35:45.516Z,9.31
2017-12-01T16:38:11.743Z,9.31
2017-12-01T16:40:37.924Z,9.31
2017-12-01T16:43:04.153Z,9.31
2017-12-01T16:45:30.431Z,9.40
2017-12-01T16:47:56.643Z,9.41
2017-12-01T16:50:22.844Z,9.39
2017-12-01T16:52:49.104Z,9.38
2017-12-01T16:55:15.553Z,9.40
2017-12-01T16:57:42.013Z,9.39
2017-12-01T17:00:08.402Z,9.34
2017-12-01T17:02:34.855Z,9.41
2017-12-01T17:05:01.261Z,9.41
2017-12-01T17:07:27.450Z,9.37
2017-12-01T17:09:53.757Z,9.36
2017-12-01T17:12:19.976Z,9.43
2017-12-01T17:14:46.402Z,9.34
2017-12-01T17:17:12.577Z,9.25
2017-12-01T17:19:38.854Z,9.26
2017-12-01T17:22:05.302Z,9.26
2017-12-01T17:24:31.473Z,9.33
2017-12-01T17:26:57.686Z,9.32
2017-12-01T17:29:23.856Z,9.32
2017-12-01T17:31:50.208Z,9.23
2017-12-01T17:34:16.826Z,9.19
2017-12-01T17:36:43.069Z,9.20
2017-12-01T17:39:09.254Z,9.28
2017-12-01T17:41:35.471Z,9.23
2017-12-01T17:44:01.634Z,9.22
2017-12-01T17:46:27.796Z,9.10
2017-12-01T17:48:54.022Z,9.09
2017-12-01T17:51:20.202Z,9.06
2017-12-01T17:53:46.374Z,9.09
2017-12-01T17:56:12.572Z,9.08
2017-12-01T17:58:38.742Z,9.07
2017-12-01T18:01:05.311Z,9.08
2017-12-01T18:03:31.504Z,9.14
2017-12-01T18:05:57.964Z,9.14
2017-12-01T18:08:24.127Z,9.13
2017-12-01T18:10:50.324Z,9.14
2017-12-01T18:13:16.503Z,9.09
2017-12-01T18:15:42.660Z,9.13
2017-12-01T18:18:08.878Z,9.10
2017-12-01T18:20:35.050Z,9.10
2017-12-01T18:23:01.393Z,9.12
2017-12-01T18:25:27.594Z,9.11
2017-12-01T18:27:53.855Z,9.13
2017-12-01T18:30:20.047Z,9.13
2017-12-01T18:32:46.285Z,9.11
2017-12-01T18:35:12.469Z,9.07
2017-12-01T18:37:38.644Z,9.07
2017-12-01T18:40:04.858Z,9.00
2017-12-01T18:42:31.028Z,8.94
2017-12-01T18:44:57.205Z,8.94
2017-12-01T18:47:23.512Z,8.95
2017-12-01T18:49:49.922Z,8.95
2017-12-01T18:52:16.412Z,8.94
2017-12-01T18:54:42.644Z,8.93
2017-12-01T18:57:08.807Z,8.98
2017-12-01T18:59:34.971Z,9.00
2017-12-01T19:02:01.180Z,9.08
2017-12-01T19:04:27.372Z,9.12
2017-12-01T19:06:53.684Z,9.08
2017-12-01T19:09:20.160Z,9.12
2017-12-01T19:11:46.378Z,9.14
2017-12-01T19:14:12.559Z,9.15
2017-12-01T19:16:38.773Z,9.04
2017-12-01T19:19:04.962Z,8.96
2017-12-01T19:21:31.120Z,8.93
2017-12-01T19:23:57.335Z,8.90
2017-12-01T19:26:23.507Z,8.79
2017-12-01T19:28:49.668Z,8.83
2017-12-01T19:31:15.868Z,8.79
2017-12-01T19:33:42.029Z,8.81
2017-12-01T19:36:08.198Z,8.76
2017-12-01T19:38:34.502Z,8.77
2017-12-01T19:41:00.902Z,8.71
2017-12-01T19:43:27.078Z,8.79
2017-12-01T19:45:53.396Z,8.82
2017-12-01T19:48:19.622Z,8.80
2017-12-01T19:50:45.808Z,8.86
2017-12-01T19:53:12.009Z,8.89
2017-12-01T19:55:38.212Z,8.95
2017-12-01T19:58:04.373Z,8.98
2017-12-01T20:00:30.778Z,8.98
2017-12-01T20:02:56.946Z,8.96
2017-12-01T20:05:23.224Z,8.90
2017-12-01T20:07:49.508Z,8.85
2017-12-01T20:10:15.763Z,8.83
2017-12-01T20:12:41.929Z,8.87
2017-12-01T20:15:08.245Z,8.87
2017-12-01T20:17:34.473Z,8.95
2017-12-01T20:20:00.695Z,8.96
2017-12-01T20:22:26.894Z,8.98
2017-12-01T20:24:53.162Z,8.98
2017-12-01T20:27:19.614Z,8.90
2017-12-01T20:29:46.007Z,8.98
2017-12-01T20:32:12.185Z,8.96
2017-12-01T20:34:38.469Z,8.98
2017-12-01T20:37:04.715Z,8.99
2017-12-01T20:39:30.881Z,8.99
2017-12-01T20:41:57.050Z,8.98
2017-12-01T20:44:23.428Z,8.91
2017-12-01T20:46:49.597Z,8.92
2017-12-01T20:49:15.775Z,8.93
2017-12-01T20:51:41.976Z,8.99
2017-12-01T20:54:08.143Z,8.94
2017-12-01T20:56:34.529Z,8.95
2017-12-01T20:59:00.709Z,8.86
2017-12-01T21:01:26.867Z,8.83
2017-12-01T21:03:53.056Z,8.81
2017-12-01T21:06:19.257Z,8.88
2017-12-01T21:08:45.483Z,8.94
2017-12-01T21:11:11.654Z,8.88
2017-12-01T21:13:37.859Z,8.88
2017-12-01T21:16:04.037Z,8.82
2017-12-01T21:18:30.206Z,8.84
2017-12-01T21:20:56.431Z,8.89
2017-12-01T21:23:22.650Z,8.84
2017-12-01T21:25:48.853Z,8.84
2017-12-01T21:28:15.096Z,8.82
2017-12-01T21:30:41.335Z,8.80
2017-12-01T21:33:07.616Z,8.79
2017-12-01T21:35:33.841Z,8.83
2017-12-01T21:38:00.023Z,8.76
2017-12-01T21:40:26.260Z,8.79
2017-12-01T21:42:52.467Z,8.84
2017-12-01T21:45:18.759Z,8.84
2017-12-01T21:47:44.945Z,8.89
2017-12-01T21:50:11.357Z,8.89
2017-12-01T21:52:37.507Z,8.85
2017-12-01T21:55:03.671Z,8.78
2017-12-01T21:57:29.872Z,8.78
2017-12-01T21:59:56.046Z,8.74
2017-12-01T22:02:22.352Z,8.78
2017-12-01T22:04:48.828Z,8.77
2017-12-01T22:07:15.013Z,8.78
2017-12-01T22:09:41.401Z,8.80
2017-12-01T22:12:07.825Z,8.86
2017-12-01T22:14:34.046Z,8.91
2017-12-01T22:17:00.295Z,8.94
2017-12-01T22:19:26.527Z,9.01
2017-12-01T22:21:52.814Z,8.97
2017-12-01T22:24:18.977Z,8.97
2017-12-01T22:26:45.183Z,8.91
2017-12-01T22:29:11.335Z,8.87
2017-12-01T22:31:37.507Z,8.88
2017-12-01T22:34:03.696Z,8.93
2017-12-01T22:36:29.854Z,8.91
2017-12-01T22:38:56.023Z,8.88
2017-12-01T22:41:22.378Z,8.97
2017-12-01T22:43:48.531Z,9.01
2017-12-01T22:46:14.810Z,9.06
2017-12-01T22:48:41.170Z,9.12
2017-12-01T22:51:07.350Z,9.07
2017-12-01T22:53:33.511Z,9.03
2017-12-01T22:55:59.700Z,9.05
2017-12-01T22:58:25.852Z,9.08
2017-12-01T23:00:52.201Z,9.13
2017-12-01T23:03:18.396Z,9.20
2017-12-01T23:05:44.580Z,9.14
2017-12-01T23:08:10.742Z,9.13
2017-12-01T23:10:37.055Z,9.19
2017-12-01T23:13:03.237Z,9.20
2017-12-01T23:15:29.405Z,9.22
2017-12-01T23:17:55.674Z,9.26
2017-12-01T23:20:21.830Z,9.29
2017-12-01T23:22:48.013Z,9.25
2017-12-01T23:25:14.276Z,9.27
2017-12-01T23:27:40.514Z,9.25
2017-12-01T23:30:06.724Z,9.15
2017-12-01T23:32:32.941Z,9.17
2017-12-01T23:34:59.182Z,9.15
2017-12-01T23:37:25.357Z,9.23
2017-12-01T23:39:51.658Z,9.31
2017-12-01T23:42:17.833Z,9.25
2017-12-01T23:44:44.088Z,9.27
2017-12-01T23:47:10.400Z,9.31
2017-12-01T23:49:36.769Z,9.30
2017-12-01T23:52:02.936Z,9.27
2017-12-01T23:54:29.142Z,9.29
2017-12-01T23:56:55.305Z,9.32
2017-12-01T23:59:21.469Z,9.37
